Time;durP1;ratioP1;P1;durP2;ratioP2;P2;SDS_P1;SDS_P2;PMS_P1;PMS_P2;Temp;Humidity;BMP_temperature;BMP_pressure;BME280_temperature;BME280_humidity;BME280_pressure;Samples;Min_cycle;Max_cycle;Signal;HPM_P1;HPM_P2
2023/02/11 00:02:09;;;;;;;;;;;;;;;;;;4420059;32;20303;-71
2023/02/11 00:04:34;;;;;;;;;;;;;;;;;;4420777;32;19997;-71
2023/02/11 00:06:59;;;;;;;;;;;;;;;;;;4420785;32;19933;-71
2023/02/11 00:09:24;;;;;;;;;;;;;;;;;;4420866;32;20012;-71
2023/02/11 00:11:49;;;;;;;;;;;;;;;;;;4420002;32;20322;-72
2023/02/11 00:14:14;;;;;;;;;;;;;;;;;;4418759;32;19937;-72
2023/02/11 00:16:39;;;;;;;;;;;;;;;;;;4420545;32;19933;-70
2023/02/11 00:19:05;;;;;;;;;;;;;;;;;;4419029;32;19988;-71
2023/02/11 00:21:30;;;;;;;;;;;;;;;;;;4419745;32;19993;-71
2023/02/11 00:23:56;;;;;;;;;;;;;;;;;;4420898;32;19949;-71
2023/02/11 00:26:21;;;;;;;;;;;;;;;;;;4424823;32;19937;-70
2023/02/11 00:28:46;;;;;;;;;;;;;;;;;;4423385;32;19937;-71
2023/02/11 00:31:11;;;;;;;;;;;;;;;;;;4422055;32;19992;-71
2023/02/11 00:33:36;;;;;;;;;;;;;;;;;;4423079;32;19940;-70
2023/02/11 00:36:01;;;;;;;;;;;;;;;;;;4423230;32;19951;-71
2023/02/11 00:38:26;;;;;;;;;;;;;;;;;;4425124;32;19945;-70
2023/02/11 00:40:51;;;;;;;;;;;;;;;;;;4423472;32;19961;-71
2023/02/11 00:43:16;;;;;;;;;;;;;;;;;;4425525;32;19974;-71
2023/02/11 00:45:42;;;;;;;;;;;;;;;;;;4423216;32;19952;-71
2023/02/11 00:48:07;;;;;;;;;;;;;;;;;;4422216;32;19997;-71
2023/02/11 00:50:32;;;;;;;;;;;;;;;;;;4423846;32;19934;-71
2023/02/11 00:52:57;;;;;;;;;;;;;;;;;;4422837;32;19953;-70
2023/02/11 00:55:22;;;;;;;;;;;;;;;;;;4422808;32;20352;-71
2023/02/11 00:57:47;;;;;;;;;;;;;;;;;;4424510;32;19932;-71
2023/02/11 01:00:12;;;;;;;;;;;;;;;;;;4423007;32;19937;-71
2023/02/11 01:02:37;;;;;;;;;;;;;;;;;;4422095;32;19944;-72
2023/02/11 01:05:02;;;;;;;;;;;;;;;;;;4420791;32;19971;-72
2023/02/11 01:07:27;;;;;;;;;;;;;;;;;;4421060;32;19945;-72
2023/02/11 01:09:53;;;;;;;;;;;;;;;;;;4421058;32;20018;-70
2023/02/11 01:12:18;;;;;;;;;;;;;;;;;;4421914;32;19941;-72
2023/02/11 01:14:43;;;;;;;;;;;;;;;;;;4421824;32;19951;-71
2023/02/11 01:17:08;;;;;;;;;;;;;;;;;;4422607;32;20010;-71
2023/02/11 01:19:33;;;;;;;;;;;;;;;;;;4423438;32;19956;-71
2023/02/11 01:21:58;;;;;;;;;;;;;;;;;;4421489;32;19945;-72
2023/02/11 01:24:23;;;;;;;;;;;;;;;;;;4420895;32;19974;-71
2023/02/11 01:26:48;;;;;;;;;;;;;;;;;;4422328;32;20285;-71
2023/02/11 01:29:13;;;;;;;;;;;;;;;;;;4423576;32;20038;-71
2023/02/11 01:31:39;;;;;;;;;;;;;;;;;;4420982;32;19936;-71
2023/02/11 01:34:04;;;;;;;;;;;;;;;;;;4421274;32;19945;-70
2023/02/11 01:36:29;;;;;;;;;;;;;;;;;;4420833;32;20386;-70
2023/02/11 01:38:54;;;;;;;;;;;;;;;;;;4422847;32;19993;-71
2023/02/11 01:41:19;;;;;;;;;;;;;;;;;;4422078;32;19937;-71
2023/02/11 01:43:44;;;;;;;;;;;;;;;;;;4422962;32;19952;-72
2023/02/11 01:46:10;;;;;;;;;;;;;;;;;;4420827;32;19938;-71
2023/02/11 01:48:35;;;;;;;;;;;;;;;;;;4422529;32;19944;-71
2023/02/11 01:51:00;;;;;;;;;;;;;;;;;;4422993;32;19953;-71
2023/02/11 01:58:53;;;;;;;;;;;;;;;;;;4423316;32;20357;-71
2023/02/11 02:01:18;;;;;;;;;;;;;;;;;;4421504;32;20301;-71
2023/02/11 02:03:43;;;;;;;;;;;;;;;;;;4420783;32;20001;-70
2023/02/11 02:06:08;;;;;;;;;;;;;;;;;;4422405;32;19944;-72
2023/02/11 02:08:33;;;;;;;;;;;;;;;;;;4421863;32;19973;-72
2023/02/11 02:10:59;;;;;;;;;;;;;;;;;;4420735;32;19955;-69
2023/02/11 02:13:24;;;;;;;;;;;;;;;;;;4419545;32;19941;-72
2023/02/11 02:15:50;;;;;;;;;;;;;;;;;;4421288;32;19948;-70
2023/02/11 02:18:15;;;;;;;;;;;;;;;;;;4421835;32;19963;-71
2023/02/11 02:20:40;;;;;;;;;;;;;;;;;;4421056;32;20353;-71
2023/02/11 02:23:05;;;;;;;;;;;;;;;;;;4421599;32;19948;-71
2023/02/11 02:25:30;;;;;;;;;;;;;;;;;;4421261;32;19937;-71
2023/02/11 02:27:55;;;;;;;;;;;;;;;;;;4421482;32;19980;-72
2023/02/11 02:30:20;;;;;;;;;;;;;;;;;;4421223;32;19949;-72
2023/02/11 02:32:45;;;;;;;;;;;;;;;;;;4420892;32;19945;-71
2023/02/11 02:35:10;;;;;;;;;;;;;;;;;;4421885;32;20247;-71
2023/02/11 02:37:36;;;;;;;;;;;;;;;;;;4419769;32;20370;-71
2023/02/11 02:40:01;;;;;;;;;;;;;;;;;;4421413;32;20318;-71
2023/02/11 02:42:26;;;;;;;;;;;;;;;;;;4420758;32;19947;-71
2023/02/11 02:44:51;;;;;;;;;;;;;;;;;;4421319;32;19945;-71
2023/02/11 02:47:16;;;;;;;;;;;;;;;;;;4420181;32;20339;-71
2023/02/11 02:49:41;;;;;;;;;;;;;;;;;;4421354;32;20336;-71
2023/02/11 02:52:06;;;;;;;;;;;;;;;;;;4422199;32;19933;-71
2023/02/11 02:54:32;;;;;;;;;;;;;;;;;;4420951;32;19937;-71
2023/02/11 02:56:57;;;;;;;;;;;;;;;;;;4420144;32;19934;-70
2023/02/11 02:59:22;;;;;;;;;;;;;;;;;;4420723;32;19933;-71
2023/02/11 03:01:47;;;;;;;;;;;;;;;;;;4420976;32;19973;-72
2023/02/11 03:04:12;;;;;;;;;;;;;;;;;;4420796;32;19976;-71
2023/02/11 03:06:37;;;;;;;;;;;;;;;;;;4419627;32;19956;-71
2023/02/11 03:09:02;;;;;;;;;;;;;;;;;;4421978;32;20259;-72
2023/02/11 03:11:28;;;;;;;;;;;;;;;;;;4421553;32;19952;-71
2023/02/11 03:13:53;;;;;;;;;;;;;;;;;;4418997;32;20010;-71
2023/02/11 03:16:18;;;;;;;;;;;;;;;;;;4420156;32;19944;-70
2023/02/11 03:18:43;;;;;;;;;;;;;;;;;;4419299;32;19937;-70
2023/02/11 03:21:08;;;;;;;;;;;;;;;;;;4421895;32;19957;-71
2023/02/11 03:23:33;;;;;;;;;;;;;;;;;;4420764;32;19978;-71
2023/02/11 03:25:58;;;;;;;;;;;;;;;;;;4420933;32;19933;-72
2023/02/11 03:28:23;;;;;;;;;;;;;;;;;;4422071;32;19975;-71
2023/02/11 03:30:49;;;;;;;;;;;;;;;;;;4420942;32;19943;-72
2023/02/11 03:33:14;;;;;;;;;;;;;;;;;;4420713;32;20351;-71
2023/02/11 03:35:39;;;;;;;;;;;;;;;;;;4419120;32;19945;-71
2023/02/11 03:38:04;;;;;;;;;;;;;;;;;;4420486;32;19980;-71
2023/02/11 03:40:30;;;;;;;;;;;;;;;;;;4420645;32;19944;-72
2023/02/11 03:42:55;;;;;;;;;;;;;;;;;;4422425;32;19956;-72
2023/02/11 03:45:21;;;;;;;;;;;;;;;;;;4421023;32;19937;-71
2023/02/11 03:47:46;;;;;;;;;;;;;;;;;;4420556;32;19963;-71
2023/02/11 03:50:11;;;;;;;;;;;;;;;;;;4421660;32;20311;-71
2023/02/11 03:52:36;;;;;;;;;;;;;;;;;;4419062;32;19968;-70
2023/02/11 03:55:01;;;;;;;;;;;;;;;;;;4420795;32;20286;-71
2023/02/11 03:57:26;;;;;;;;;;;;;;;;;;4420568;32;19990;-71
2023/02/11 03:59:51;;;;;;;;;;;;;;;;;;4421986;32;19948;-71
2023/02/11 04:02:16;;;;;;;;;;;;;;;;;;4423225;32;19941;-71
2023/02/11 04:04:41;;;;;;;;;;;;;;;;;;4423817;32;19945;-71
2023/02/11 04:07:06;;;;;;;;;;;;;;;;;;4423094;32;20327;-72
2023/02/11 04:09:31;;;;;;;;;;;;;;;;;;4424057;32;19932;-71
2023/02/11 04:11:57;;;;;;;;;;;;;;;;;;4423138;32;19937;-72
2023/02/11 04:14:22;;;;;;;;;;;;;;;;;;4423334;32;19934;-70
2023/02/11 04:16:47;;;;;;;;;;;;;;;;;;4421832;32;19956;-71
2023/02/11 04:19:12;;;;;;;;;;;;;;;;;;4422541;32;19952;-70
2023/02/11 04:21:37;;;;;;;;;;;;;;;;;;4422539;32;20315;-70
2023/02/11 04:24:02;;;;;;;;;;;;;;;;;;4423320;32;19970;-71
2023/02/11 04:26:27;;;;;;;;;;;;;;;;;;4421895;32;19953;-72
2023/02/11 04:28:52;;;;;;;;;;;;;;;;;;4422720;32;19948;-71
2023/02/11 04:31:17;;;;;;;;;;;;;;;;;;4418650;32;19946;-71
2023/02/11 04:33:42;;;;;;;;;;;;;;;;;;4413688;32;19933;-71
2023/02/11 04:36:08;;;;;;;;;;;;;;;;;;4421544;32;20365;-72
2023/02/11 04:38:33;;;;;;;;;;;;;;;;;;4424132;32;19965;-71
2023/02/11 04:40:59;;;;;;;;;;;;;;;;;;4422593;32;19937;-71
2023/02/11 04:43:24;;;;;;;;;;;;;;;;;;4422245;32;20333;-71
2023/02/11 04:45:49;;;;;;;;;;;;;;;;;;4422949;32;19981;-70
2023/02/11 04:48:14;;;;;;;;;;;;;;;;;;4421454;32;19979;-71
2023/02/11 04:50:40;;;;;;;;;;;;;;;;;;4423503;32;20274;-71
2023/02/11 04:53:05;;;;;;;;;;;;;;;;;;4423541;32;19957;-71
2023/02/11 04:55:30;;;;;;;;;;;;;;;;;;4422173;32;19947;-72
2023/02/11 04:57:55;;;;;;;;;;;;;;;;;;4424976;32;19973;-71
2023/02/11 05:00:20;;;;;;;;;;;;;;;;;;4424586;32;19988;-72
2023/02/11 05:02:45;;;;;;;;;;;;;;;;;;4422463;32;20353;-71
2023/02/11 05:05:10;;;;;;;;;;;;;;;;;;4423138;32;19934;-71
2023/02/11 05:07:35;;;;;;;;;;;;;;;;;;4424531;32;19933;-71
2023/02/11 05:10:00;;;;;;;;;;;;;;;;;;4424125;32;19941;-70
2023/02/11 05:12:26;;;;;;;;;;;;;;;;;;4422707;32;19938;-71
2023/02/11 05:14:51;;;;;;;;;;;;;;;;;;4424070;32;19943;-71
2023/02/11 05:17:16;;;;;;;;;;;;;;;;;;4422115;32;19986;-71
2023/02/11 05:19:41;;;;;;;;;;;;;;;;;;4422992;32;20305;-71
2023/02/11 05:22:06;;;;;;;;;;;;;;;;;;4421870;32;19933;-71
2023/02/11 05:24:32;;;;;;;;;;;;;;;;;;4422332;32;20313;-71
2023/02/11 05:26:57;;;;;;;;;;;;;;;;;;4422916;32;19933;-72
2023/02/11 05:29:22;;;;;;;;;;;;;;;;;;4422537;32;19934;-72
2023/02/11 05:31:47;;;;;;;;;;;;;;;;;;4423095;32;19977;-71
2023/02/11 05:34:12;;;;;;;;;;;;;;;;;;4420655;32;19933;-72
2023/02/11 05:36:37;;;;;;;;;;;;;;;;;;4422637;32;20297;-71
2023/02/11 05:39:03;;;;;;;;;;;;;;;;;;4421447;32;20308;-72
2023/02/11 05:41:28;;;;;;;;;;;;;;;;;;4421848;32;19985;-71
2023/02/11 05:43:53;;;;;;;;;;;;;;;;;;4421542;32;19952;-72
2023/02/11 05:46:18;;;;;;;;;;;;;;;;;;4422371;32;19947;-71
2023/02/11 05:48:43;;;;;;;;;;;;;;;;;;4424132;32;19972;-71
2023/02/11 05:51:08;;;;;;;;;;;;;;;;;;4423543;32;19941;-71
2023/02/11 05:53:33;;;;;;;;;;;;;;;;;;4421777;32;19944;-71
2023/02/11 05:55:58;;;;;;;;;;;;;;;;;;4422499;32;19952;-71
2023/02/11 05:58:23;;;;;;;;;;;;;;;;;;4425043;32;19932;-72
2023/02/11 06:00:48;;;;;;;;;;;;;;;;;;4427309;32;19937;-71
2023/02/11 06:03:14;;;;;;;;;;;;;;;;;;4421271;32;19977;-71
2023/02/11 06:05:39;;;;;;;;;;;;;;;;;;4421966;32;20355;-72
2023/02/11 06:08:04;;;;;;;;;;;;;;;;;;4423021;32;19969;-71
2023/02/11 06:10:29;;;;;;;;;;;;;;;;;;4422312;32;19984;-71
2023/02/11 06:12:54;;;;;;;;;;;;;;;;;;4420439;32;20304;-71
2023/02/11 06:15:19;;;;;;;;;;;;;;;;;;4429433;32;19933;-71
2023/02/11 06:17:44;;;;;;;;;;;;;;;;;;4426057;32;19933;-69
2023/02/11 06:20:09;;;;;;;;;;;;;;;;;;4421818;32;19933;-71
2023/02/11 06:22:35;;;;;;;;;;;;;;;;;;4422156;32;19968;-71
2023/02/11 06:25:00;;;;;;;;;;;;;;;;;;4420178;32;19942;-70
2023/02/11 06:27:25;;;;;;;;;;;;;;;;;;4422818;32;19933;-71
2023/02/11 06:29:51;;;;;;;;;;;;;;;;;;4421700;32;19937;-71
2023/02/11 06:32:16;;;;;;;;;;;;;;;;;;4420776;32;19966;-71
2023/02/11 06:34:41;;;;;;;;;;;;;;;;;;4422889;32;19937;-71
2023/02/11 06:37:07;;;;;;;;;;;;;;;;;;4421467;32;19977;-70
2023/02/11 06:39:32;;;;;;;;;;;;;;;;;;4421466;32;20002;-70
2023/02/11 06:41:57;;;;;;;;;;;;;;;;;;4423425;32;20291;-70
2023/02/11 06:44:22;;;;;;;;;;;;;;;;;;4415086;32;19947;-71
2023/02/11 06:46:47;;;;;;;;;;;;;;;;;;4413454;32;19941;-71
2023/02/11 06:49:12;;;;;;;;;;;;;;;;;;4405035;32;20018;-70
2023/02/11 06:51:37;;;;;;;;;;;;;;;;;;4415645;32;19951;-71
2023/02/11 06:54:02;;;;;;;;;;;;;;;;;;4419130;32;19941;-70
2023/02/11 06:56:27;;;;;;;;;;;;;;;;;;4414680;32;19938;-71
2023/02/11 06:58:53;;;;;;;;;;;;;;;;;;4406050;32;19989;-70
2023/02/11 07:01:19;;;;;;;;;;;;;;;;;;4405524;32;19942;-70
2023/02/11 07:03:44;;;;;;;;;;;;;;;;;;4405548;32;19983;-71
2023/02/11 07:06:09;;;;;;;;;;;;;;;;;;4406809;32;20383;-71
2023/02/11 07:08:34;;;;;;;;;;;;;;;;;;4419703;32;19973;-70
2023/02/11 07:10:59;;;;;;;;;;;;;;;;;;4422083;32;19932;-72
2023/02/11 07:13:24;;;;;;;;;;;;;;;;;;4421028;32;19945;-70
2023/02/11 07:15:51;;;;;;;;;;;;;;;;;;4420022;32;19937;-70
2023/02/11 07:18:16;;;;;;;;;;;;;;;;;;4420666;32;19984;-71
2023/02/11 07:20:41;;;;;;;;;;;;;;;;;;4422114;32;19937;-71
2023/02/11 07:23:06;;;;;;;;;;;;;;;;;;4420741;32;19992;-71
2023/02/11 07:25:32;;;;;;;;;;;;;;;;;;4420520;32;19945;-71
2023/02/11 07:27:57;;;;;;;;;;;;;;;;;;4420577;32;19944;-72
2023/02/11 07:30:22;;;;;;;;;;;;;;;;;;4421618;32;19937;-71
2023/02/11 07:32:47;;;;;;;;;;;;;;;;;;4419164;32;19960;-72
2023/02/11 07:35:13;;;;;;;;;;;;;;;;;;4422817;32;20235;-71
2023/02/11 07:37:38;;;;;;;;;;;;;;;;;;4423866;32;19941;-71
2023/02/11 07:40:03;;;;;;;;;;;;;;;;;;4424225;32;19991;-71
2023/02/11 07:42:28;;;;;;;;;;;;;;;;;;4424508;32;20295;-71
2023/02/11 07:44:54;;;;;;;;;;;;;;;;;;4423941;32;19992;-70
2023/02/11 07:47:19;;;;;;;;;;;;;;;;;;4421044;32;19953;-70
2023/02/11 07:49:44;;;;;;;;;;;;;;;;;;4423795;32;19967;-71
2023/02/11 07:52:09;;;;;;;;;;;;;;;;;;4422258;32;19937;-69
2023/02/11 07:54:34;;;;;;;;;;;;;;;;;;4424040;32;20018;-71
2023/02/11 07:56:59;;;;;;;;;;;;;;;;;;4423235;32;19991;-70
2023/02/11 07:59:26;;;;;;;;;;;;;;;;;;4421690;32;20068;-70
2023/02/11 08:01:51;;;;;;;;;;;;;;;;;;4422188;32;20609;-70
2023/02/11 08:04:16;;;;;;;;;;;;;;;;;;4421551;32;20354;-73
2023/02/11 08:06:41;;;;;;;;;;;;;;;;;;4423799;32;19936;-72
2023/02/11 08:09:07;;;;;;;;;;;;;;;;;;4421686;32;19937;-71
2023/02/11 08:11:32;;;;;;;;;;;;;;;;;;4423343;32;19937;-71
2023/02/11 08:13:57;;;;;;;;;;;;;;;;;;4423068;32;19941;-71
2023/02/11 08:16:23;;;;;;;;;;;;;;;;;;4423750;32;20473;-71
2023/02/11 08:18:48;;;;;;;;;;;;;;;;;;4422767;32;20244;-72
2023/02/11 08:21:13;;;;;;;;;;;;;;;;;;4421702;32;20319;-71
2023/02/11 08:23:38;;;;;;;;;;;;;;;;;;4422699;32;20315;-71
2023/02/11 08:26:03;;;;;;;;;;;;;;;;;;4422198;32;20002;-71
2023/02/11 08:28:28;;;;;;;;;;;;;;;;;;4423564;32;19929;-71
2023/02/11 08:30:53;;;;;;;;;;;;;;;;;;4424006;32;19965;-71
2023/02/11 08:33:19;;;;;;;;;;;;;;;;;;4422594;32;20278;-70
2023/02/11 08:35:44;;;;;;;;;;;;;;;;;;4421700;32;19968;-72
2023/02/11 08:38:09;;;;;;;;;;;;;;;;;;4421396;32;19937;-70
2023/02/11 08:40:34;;;;;;;;;;;;;;;;;;4421200;32;20329;-71
2023/02/11 08:42:59;;;;;;;;;;;;;;;;;;4422974;32;19932;-71
2023/02/11 08:45:24;;;;;;;;;;;;;;;;;;4421841;32;20029;-70
2023/02/11 08:47:49;;;;;;;;;;;;;;;;;;4422090;32;19937;-70
2023/02/11 08:50:15;;;;;;;;;;;;;;;;;;4420697;32;19943;-70
2023/02/11 08:52:40;;;;;;;;;;;;;;;;;;4421924;32;20341;-70
2023/02/11 08:55:05;;;;;;;;;;;;;;;;;;4422610;32;20067;-70
2023/02/11 08:57:30;;;;;;;;;;;;;;;;;;4422040;32;19941;-70
2023/02/11 08:59:55;;;;;;;;;;;;;;;;;;4422115;32;19991;-70
2023/02/11 09:02:20;;;;;;;;;;;;;;;;;;4423144;32;19933;-70
2023/02/11 09:04:45;;;;;;;;;;;;;;;;;;4422291;32;20374;-71
2023/02/11 09:07:11;;;;;;;;;;;;;;;;;;4421184;32;20311;-70
2023/02/11 09:09:37;;;;;;;;;;;;;;;;;;4422761;32;19975;-69
2023/02/11 09:12:02;;;;;;;;;;;;;;;;;;4422008;32;19937;-70
2023/02/11 09:14:27;;;;;;;;;;;;;;;;;;4420203;32;19967;-70
2023/02/11 09:16:52;;;;;;;;;;;;;;;;;;4421764;32;19949;-69
2023/02/11 09:19:17;;;;;;;;;;;;;;;;;;4421568;32;19937;-69
2023/02/11 09:21:43;;;;;;;;;;;;;;;;;;4422055;32;19942;-70
2023/02/11 09:24:08;;;;;;;;;;;;;;;;;;4421547;32;19937;-70
2023/02/11 09:26:33;;;;;;;;;;;;;;;;;;4422395;32;19976;-69
2023/02/11 09:28:58;;;;;;;;;;;;;;;;;;4420754;32;19933;-69
2023/02/11 09:31:23;;;;;;;;;;;;;;;;;;4421779;32;19933;-69
2023/02/11 09:33:49;;;;;;;;;;;;;;;;;;4420202;32;19945;-70
2023/02/11 09:36:14;;;;;;;;;;;;;;;;;;4421623;32;19968;-69
2023/02/11 09:38:39;;;;;;;;;;;;;;;;;;4421878;32;19941;-70
2023/02/11 09:41:07;;;;;;;;;;;;;;;;;;4421220;32;19934;-70
2023/02/11 09:43:32;;;;;;;;;;;;;;;;;;4421194;32;20326;-70
2023/02/11 09:45:57;;;;;;;;;;;;;;;;;;4420035;32;20244;-70
2023/02/11 09:48:22;;;;;;;;;;;;;;;;;;4419994;32;19973;-70
2023/02/11 09:50:47;;;;;;;;;;;;;;;;;;4421095;32;19940;-71
2023/02/11 09:53:12;;;;;;;;;;;;;;;;;;4422633;32;20031;-71
2023/02/11 09:55:38;;;;;;;;;;;;;;;;;;4421156;32;19933;-70
2023/02/11 09:58:03;;;;;;;;;;;;;;;;;;4418447;32;20315;-70
2023/02/11 10:00:28;;;;;;;;;;;;;;;;;;4419097;32;19973;-70
2023/02/11 10:02:53;;;;;;;;;;;;;;;;;;4420886;32;19973;-70
2023/02/11 10:05:19;;;;;;;;;;;;;;;;;;4421165;32;19956;-71
2023/02/11 10:07:44;;;;;;;;;;;;;;;;;;4420707;32;19972;-70
2023/02/11 10:10:09;;;;;;;;;;;;;;;;;;4419428;32;20311;-70
2023/02/11 10:12:34;;;;;;;;;;;;;;;;;;4421174;32;20033;-70
2023/02/11 10:14:59;;;;;;;;;;;;;;;;;;4420805;32;19948;-70
2023/02/11 10:17:24;;;;;;;;;;;;;;;;;;4421175;32;19970;-70
2023/02/11 10:19:49;;;;;;;;;;;;;;;;;;4419873;32;19946;-69
2023/02/11 10:22:14;;;;;;;;;;;;;;;;;;4421375;32;19968;-71
2023/02/11 10:24:39;;;;;;;;;;;;;;;;;;4420453;32;19948;-71
2023/02/11 10:27:05;;;;;;;;;;;;;;;;;;4421361;32;19976;-71
2023/02/11 10:29:30;;;;;;;;;;;;;;;;;;4420723;32;20354;-71
2023/02/11 10:31:55;;;;;;;;;;;;;;;;;;4422269;32;19937;-70
2023/02/11 10:34:20;;;;;;;;;;;;;;;;;;4419205;32;19956;-70
2023/02/11 10:36:45;;;;;;;;;;;;;;;;;;4422007;32;19952;-70
2023/02/11 10:39:10;;;;;;;;;;;;;;;;;;4419947;32;19951;-70
2023/02/11 10:41:35;;;;;;;;;;;;;;;;;;4419157;32;19946;-70
2023/02/11 10:44:00;;;;;;;;;;;;;;;;;;4422494;32;20295;-70
2023/02/11 10:46:26;;;;;;;;;;;;;;;;;;4420065;32;19959;-71
2023/02/11 10:48:52;;;;;;;;;;;;;;;;;;4419473;32;19952;-71
2023/02/11 10:51:17;;;;;;;;;;;;;;;;;;4421425;32;19933;-71
2023/02/11 10:53:42;;;;;;;;;;;;;;;;;;4419012;32;20236;-70
2023/02/11 10:56:07;;;;;;;;;;;;;;;;;;4419012;32;19953;-72
2023/02/11 10:58:32;;;;;;;;;;;;;;;;;;4418974;32;19933;-71
2023/02/11 11:00:57;;;;;;;;;;;;;;;;;;4421720;32;19978;-70
2023/02/11 11:03:22;;;;;;;;;;;;;;;;;;4419213;32;19937;-70
2023/02/11 11:05:49;;;;;;;;;;;;;;;;;;4420459;32;19948;-70
2023/02/11 11:08:14;;;;;;;;;;;;;;;;;;4420321;32;19972;-70
2023/02/11 11:10:42;;;;;;;;;;;;;;;;;;4421113;32;19947;-71
2023/02/11 11:13:07;;;;;;;;;;;;;;;;;;4419541;32;19996;-70
2023/02/11 11:15:32;;;;;;;;;;;;;;;;;;4420893;32;19945;-71
2023/02/11 11:17:57;;;;;;;;;;;;;;;;;;4420701;32;19934;-72
2023/02/11 11:20:22;;;;;;;;;;;;;;;;;;4420552;32;20007;-72
2023/02/11 11:22:47;;;;;;;;;;;;;;;;;;4420226;32;20338;-70
2023/02/11 11:25:13;;;;;;;;;;;;;;;;;;4421028;32;19967;-70
2023/02/11 11:27:38;;;;;;;;;;;;;;;;;;4420367;32;19933;-71
2023/02/11 11:30:03;;;;;;;;;;;;;;;;;;4419344;32;19937;-70
2023/02/11 11:32:28;;;;;;;;;;;;;;;;;;4420156;32;19942;-70
2023/02/11 11:34:54;;;;;;;;;;;;;;;;;;4421114;32;19991;-71
2023/02/11 11:37:20;;;;;;;;;;;;;;;;;;4420043;32;19953;-70
2023/02/11 11:39:45;;;;;;;;;;;;;;;;;;4421983;32;20184;-70
2023/02/11 11:42:10;;;;;;;;;;;;;;;;;;4420973;32;19948;-69
2023/02/11 11:44:35;;;;;;;;;;;;;;;;;;4421207;32;19997;-70
2023/02/11 11:47:00;;;;;;;;;;;;;;;;;;4420952;32;20285;-70
2023/02/11 11:49:25;;;;;;;;;;;;;;;;;;4420235;32;20341;-71
2023/02/11 11:51:50;;;;;;;;;;;;;;;;;;4419998;32;19946;-71
2023/02/11 11:54:15;;;;;;;;;;;;;;;;;;4419735;32;19968;-70
2023/02/11 11:56:40;;;;;;;;;;;;;;;;;;4419259;32;20352;-70
2023/02/11 11:59:06;;;;;;;;;;;;;;;;;;4418553;32;19937;-70
2023/02/11 12:01:31;;;;;;;;;;;;;;;;;;4420838;32;19979;-69
2023/02/11 12:03:56;;;;;;;;;;;;;;;;;;4421526;32;19944;-70
2023/02/11 12:06:21;;;;;;;;;;;;;;;;;;4420397;32;19938;-70
2023/02/11 12:08:46;;;;;;;;;;;;;;;;;;4420565;32;19934;-70
2023/02/11 12:11:11;;;;;;;;;;;;;;;;;;4420495;32;19934;-69
2023/02/11 12:13:36;;;;;;;;;;;;;;;;;;4419769;32;19941;-70
2023/02/11 12:16:01;;;;;;;;;;;;;;;;;;4420201;32;19989;-70
2023/02/11 12:18:26;;;;;;;;;;;;;;;;;;4419748;32;19963;-69
2023/02/11 12:20:51;;;;;;;;;;;;;;;;;;4421406;32;20277;-69
2023/02/11 12:23:17;;;;;;;;;;;;;;;;;;4421176;32;19933;-70
2023/02/11 12:25:42;;;;;;;;;;;;;;;;;;4423203;32;19949;-70
2023/02/11 12:28:07;;;;;;;;;;;;;;;;;;4423244;32;19937;-70
2023/02/11 12:30:32;;;;;;;;;;;;;;;;;;4421439;32;19941;-70
2023/02/11 12:32:57;;;;;;;;;;;;;;;;;;4422255;32;20264;-69
2023/02/11 12:35:22;;;;;;;;;;;;;;;;;;4422459;32;19934;-70
2023/02/11 12:37:47;;;;;;;;;;;;;;;;;;4423599;32;20311;-69
2023/02/11 12:40:12;;;;;;;;;;;;;;;;;;4421058;32;19971;-70
2023/02/11 12:45:21;;;;;;;;;;;;;;;;;;4424038;32;19941;-70
2023/02/11 12:47:46;;;;;;;;;;;;;;;;;;4420713;32;19941;-70
2023/02/11 12:50:12;;;;;;;;;;;;;;;;;;4420405;32;19937;-70
2023/02/11 12:52:37;;;;;;;;;;;;;;;;;;4422274;32;19979;-70
2023/02/11 12:55:02;;;;;;;;;;;;;;;;;;4420642;32;19942;-70
2023/02/11 12:57:27;;;;;;;;;;;;;;;;;;4421301;32;19985;-70
2023/02/11 12:59:54;;;;;;;;;;;;;;;;;;4422020;32;19952;-69
2023/02/11 13:02:19;;;;;;;;;;;;;;;;;;4422817;32;20372;-70
2023/02/11 13:04:44;;;;;;;;;;;;;;;;;;4421011;32;19937;-70
2023/02/11 13:07:09;;;;;;;;;;;;;;;;;;4422495;32;19937;-70
2023/02/11 13:09:34;;;;;;;;;;;;;;;;;;4420707;32;19972;-70
2023/02/11 13:13:15;;;;;;;;;;;;;;;;;;4422262;32;19942;-71
2023/02/11 13:14:44;;;;;;;;;;;;;;;;;;4422461;32;20421;-70
2023/02/11 13:17:09;;;;;;;;;;;;;;;;;;4421753;32;20309;-70
2023/02/11 13:19:35;;;;;;;;;;;;;;;;;;4422156;32;20358;-70
2023/02/11 13:22:00;;;;;;;;;;;;;;;;;;4421728;32;20291;-70
2023/02/11 13:24:25;;;;;;;;;;;;;;;;;;4421872;32;19933;-69
2023/02/11 13:26:50;;;;;;;;;;;;;;;;;;4422372;32;19933;-70
2023/02/11 13:29:15;;;;;;;;;;;;;;;;;;4422274;32;19933;-69
2023/02/11 13:31:41;;;;;;;;;;;;;;;;;;4421685;32;19933;-70
2023/02/11 13:34:06;;;;;;;;;;;;;;;;;;4421934;32;19979;-70
2023/02/11 13:36:32;;;;;;;;;;;;;;;;;;4422140;32;20321;-72
2023/02/11 13:38:57;;;;;;;;;;;;;;;;;;4420565;32;19929;-70
2023/02/11 13:41:23;;;;;;;;;;;;;;;;;;4420105;32;19952;-69
2023/02/11 13:43:48;;;;;;;;;;;;;;;;;;4421322;32;20257;-70
2023/02/11 13:46:13;;;;;;;;;;;;;;;;;;4420334;32;19941;-70
2023/02/11 13:48:38;;;;;;;;;;;;;;;;;;4422418;32;19969;-70
2023/02/11 13:51:04;;;;;;;;;;;;;;;;;;4422975;32;19938;-70
2023/02/11 13:53:29;;;;;;;;;;;;;;;;;;4421650;32;19937;-71
2023/02/11 13:55:54;;;;;;;;;;;;;;;;;;4421405;32;19944;-69
2023/02/11 13:58:19;;;;;;;;;;;;;;;;;;4422321;32;19933;-70
2023/02/11 14:00:45;;;;;;;;;;;;;;;;;;4423093;32;20383;-70
2023/02/11 14:08:57;;;;;;;;;;;;;;;;;;4390728;32;20106;-70
2023/02/11 14:11:22;;;;;;;;;;;;;;;;;;4407245;32;20001;-70
2023/02/11 14:13:47;;;;;;;;;;;;;;;;;;4405645;32;19953;-70
2023/02/11 14:16:13;;;;;;;;;;;;;;;;;;4405577;32;19937;-71
2023/02/11 14:18:38;;;;;;;;;;;;;;;;;;4406395;32;20351;-71
2023/02/11 14:21:03;;;;;;;;;;;;;;;;;;4406348;32;19960;-70
2023/02/11 14:23:28;;;;;;;;;;;;;;;;;;4404448;32;20046;-70
2023/02/11 14:25:53;;;;;;;;;;;;;;;;;;4404481;32;20010;-70
2023/02/11 14:28:18;;;;;;;;;;;;;;;;;;4419467;32;20345;-70
2023/02/11 14:30:43;;;;;;;;;;;;;;;;;;4422739;32;19992;-70
2023/02/11 14:33:09;;;;;;;;;;;;;;;;;;4422531;32;20251;-70
2023/02/11 14:35:34;;;;;;;;;;;;;;;;;;4422319;32;19963;-70
2023/02/11 14:37:59;;;;;;;;;;;;;;;;;;4420970;32;19948;-70
2023/02/11 14:40:24;;;;;;;;;;;;;;;;;;4420043;32;19979;-71
2023/02/11 14:42:49;;;;;;;;;;;;;;;;;;4418933;32;19941;-71
2023/02/11 14:45:14;;;;;;;;;;;;;;;;;;4420142;32;19968;-70
2023/02/11 14:47:39;;;;;;;;;;;;;;;;;;4420856;32;19938;-70
2023/02/11 14:50:04;;;;;;;;;;;;;;;;;;4422595;32;20327;-70
2023/02/11 14:52:30;;;;;;;;;;;;;;;;;;4419513;32;19941;-70
2023/02/11 14:54:55;;;;;;;;;;;;;;;;;;4420419;32;19937;-70
2023/02/11 14:57:20;;;;;;;;;;;;;;;;;;4419152;32;19956;-71
2023/02/11 14:59:45;;;;;;;;;;;;;;;;;;4420291;32;20054;-70
2023/02/11 15:02:10;;;;;;;;;;;;;;;;;;4419020;32;19937;-69
2023/02/11 15:04:36;;;;;;;;;;;;;;;;;;4420534;32;19989;-70
2023/02/11 15:07:02;;;;;;;;;;;;;;;;;;4421530;32;20307;-70
2023/02/11 15:09:28;;;;;;;;;;;;;;;;;;4412819;32;19948;-71
2023/02/11 15:11:53;;;;;;;;;;;;;;;;;;4407291;32;19941;-70
2023/02/11 15:14:18;;;;;;;;;;;;;;;;;;4405024;32;19933;-70
2023/02/11 15:16:43;;;;;;;;;;;;;;;;;;4403985;32;20005;-71
2023/02/11 15:19:08;;;;;;;;;;;;;;;;;;4403577;32;19941;-70
2023/02/11 15:21:33;;;;;;;;;;;;;;;;;;4416063;32;19938;-70
2023/02/11 15:23:59;;;;;;;;;;;;;;;;;;4419430;32;19962;-70
2023/02/11 15:26:24;;;;;;;;;;;;;;;;;;4421366;32;20056;-70
2023/02/11 15:28:53;;;;;;;;;;;;;;;;;;4419147;32;20317;-70
2023/02/11 15:31:18;;;;;;;;;;;;;;;;;;4414532;32;19934;-70
2023/02/11 15:33:43;;;;;;;;;;;;;;;;;;4406469;32;19970;-71
2023/02/11 15:36:11;;;;;;;;;;;;;;;;;;4405924;32;19964;-70
2023/02/11 15:38:36;;;;;;;;;;;;;;;;;;4406897;32;19968;-70
2023/02/11 15:41:01;;;;;;;;;;;;;;;;;;4407193;32;19935;-71
2023/02/11 15:43:27;;;;;;;;;;;;;;;;;;4413368;32;19971;-71
2023/02/11 15:45:52;;;;;;;;;;;;;;;;;;4405316;32;20292;-70
2023/02/11 15:48:17;;;;;;;;;;;;;;;;;;4405341;32;20354;-71
2023/02/11 15:50:42;;;;;;;;;;;;;;;;;;4405186;32;19937;-71
2023/02/11 15:53:07;;;;;;;;;;;;;;;;;;4405289;32;19993;-70
2023/02/11 15:55:32;;;;;;;;;;;;;;;;;;4406658;32;19967;-71
2023/02/11 15:57:58;;;;;;;;;;;;;;;;;;4420207;32;20352;-71
2023/02/11 16:00:23;;;;;;;;;;;;;;;;;;4423786;32;19952;-71
2023/02/11 16:02:49;;;;;;;;;;;;;;;;;;4423030;32;19996;-72
2023/02/11 16:05:14;;;;;;;;;;;;;;;;;;4423487;32;20029;-73
2023/02/11 16:07:40;;;;;;;;;;;;;;;;;;4424166;32;19937;-71
2023/02/11 16:10:05;;;;;;;;;;;;;;;;;;4421372;32;19948;-70
2023/02/11 16:12:30;;;;;;;;;;;;;;;;;;4422227;32;19957;-71
2023/02/11 16:14:58;;;;;;;;;;;;;;;;;;4421277;32;19947;-70
2023/02/11 16:17:23;;;;;;;;;;;;;;;;;;4422290;32;19933;-69
2023/02/11 16:19:48;;;;;;;;;;;;;;;;;;4423075;32;19971;-70
2023/02/11 16:22:13;;;;;;;;;;;;;;;;;;4423092;32;19943;-70
2023/02/11 16:24:39;;;;;;;;;;;;;;;;;;4423297;32;19952;-71
2023/02/11 16:27:04;;;;;;;;;;;;;;;;;;4422884;32;19982;-70
2023/02/11 16:29:29;;;;;;;;;;;;;;;;;;4422899;32;19957;-70
2023/02/11 16:31:54;;;;;;;;;;;;;;;;;;4423298;32;19948;-70
2023/02/11 16:34:19;;;;;;;;;;;;;;;;;;4421567;32;19994;-70
2023/02/11 16:36:44;;;;;;;;;;;;;;;;;;4421354;32;20113;-73
2023/02/11 16:39:09;;;;;;;;;;;;;;;;;;4421995;32;19952;-71
2023/02/11 16:41:34;;;;;;;;;;;;;;;;;;4423101;32;20029;-73
2023/02/11 16:44:00;;;;;;;;;;;;;;;;;;4420433;32;20221;-72
2023/02/11 16:46:26;;;;;;;;;;;;;;;;;;4423931;32;19988;-72